NCAR-RAP Real-Time Weather Data

Output produced by METARs form (10 April 2020  07:28 UTC)
found at http://weather.rap.ucar.edu/surface/
 
KSSI 100653Z AUTO 31007KT 10SM CLR 23/19 A2973 RMK AO2 SLP069 T02280189